Time;durP1;ratioP1;P1;durP2;ratioP2;P2;SDS_P1;SDS_P2;PMS_P1;PMS_P2;Temp;Humidity;BMP_temperature;BMP_pressure;BME280_temperature;BME280_humidity;BME280_pressure;Samples;Min_cycle;Max_cycle;Signal;HPM_P1;HPM_P2
2022/09/19 00:05:38;;;;;;;0.20;0.00;;;19.20;99.90;;;;;;26040979;22;20199;-70
2022/09/19 00:15:48;;;;;;;0.20;0.00;;;19.30;99.90;;;;;;26041094;22;20149;-71
2022/09/19 00:26:00;;;;;;;0.20;0.00;;;19.40;99.90;;;;;;26041604;22;20231;-69
2022/09/19 00:36:04;;;;;;;0.20;0.00;;;19.40;99.90;;;;;;26041128;22;20175;-71
2022/09/19 00:46:09;;;;;;;0.20;0.00;;;19.40;99.90;;;;;;26040017;22;20203;-70
2022/09/19 00:56:15;;;;;;;0.20;0.00;;;19.60;99.90;;;;;;26039933;22;20183;-68
2022/09/19 01:06:35;;;;;;;0.20;0.10;;;19.70;99.90;;;;;;26037623;22;20248;-69
2022/09/19 01:16:43;;;;;;;0.20;0.00;;;19.90;99.90;;;;;;26039729;22;20167;-69
2022/09/19 01:27:20;;;;;;;0.20;0.00;;;20.00;99.90;;;;;;26040455;22;20176;-71
2022/09/19 01:37:30;;;;;;;0.20;0.10;;;19.90;99.90;;;;;;26034183;22;20172;-71
2022/09/19 01:47:41;;;;;;;0.20;0.00;;;20.10;99.90;;;;;;26046972;22;20195;-69
2022/09/19 01:57:53;;;;;;;0.20;0.10;;;20.30;99.90;;;;;;26048010;22;20251;-69
2022/09/19 02:08:02;;;;;;;0.20;0.10;;;20.10;99.90;;;;;;26047777;22;20188;-70
2022/09/19 02:18:13;;;;;;;0.20;0.10;;;19.90;99.90;;;;;;26021937;22;20219;-70
2022/09/19 02:28:22;;;;;;;0.20;0.10;;;20.00;99.90;;;;;;26045635;22;20195;-69
2022/09/19 02:38:36;;;;;;;0.20;0.00;;;19.90;99.90;;;;;;26047731;22;20149;-68
2022/09/19 02:48:49;;;;;;;0.20;0.00;;;19.70;99.90;;;;;;26047130;22;20175;-69
2022/09/19 02:58:57;;;;;;;0.20;0.00;;;19.60;99.90;;;;;;26039312;22;20226;-68
2022/09/19 03:09:03;;;;;;;0.20;0.00;;;19.80;99.90;;;;;;26016504;22;20283;-68
2022/09/19 03:19:10;;;;;;;0.20;0.00;;;19.80;99.90;;;;;;26043015;22;20211;-68
2022/09/19 03:29:15;;;;;;;0.20;0.10;;;19.80;99.90;;;;;;26041415;22;20267;-67
2022/09/19 03:39:20;;;;;;;0.20;0.10;;;19.80;99.90;;;;;;26039835;22;20222;-69
2022/09/19 03:49:23;;;;;;;0.20;0.10;;;19.80;99.90;;;;;;26040939;22;20256;-70
2022/09/19 03:59:29;;;;;;;0.20;0.10;;;19.80;99.90;;;;;;26042281;22;20183;-70
2022/09/19 04:09:33;;;;;;;0.20;0.00;;;19.70;99.90;;;;;;26041123;22;20210;-72
2022/09/19 04:19:39;;;;;;;0.20;0.10;;;19.60;99.90;;;;;;26015340;22;20231;-70
2022/09/19 04:29:42;;;;;;;0.20;0.10;;;19.50;99.90;;;;;;26040553;22;20184;-70
2022/09/19 04:39:48;;;;;;;0.20;0.00;;;19.40;99.90;;;;;;26013711;22;20231;-70
2022/09/19 04:49:56;;;;;;;0.20;0.10;;;19.40;99.90;;;;;;26015964;22;20275;-69
2022/09/19 05:00:07;;;;;;;0.20;0.10;;;19.40;99.90;;;;;;26038997;22;20231;-70
2022/09/19 05:10:11;;;;;;;0.20;0.00;;;19.40;99.90;;;;;;26039483;22;20204;-70
2022/09/19 05:20:16;;;;;;;0.20;0.10;;;19.10;99.90;;;;;;26045008;22;20187;-71
2022/09/19 05:30:22;;;;;;;0.20;0.00;;;19.10;99.90;;;;;;26047085;22;20247;-70
2022/09/19 05:40:28;;;;;;;0.20;0.00;;;19.00;99.90;;;;;;26017824;22;20175;-71
2022/09/19 05:50:32;;;;;;;0.20;0.00;;;18.80;99.90;;;;;;26013890;22;20188;-70
2022/09/19 06:00:37;;;;;;;0.20;0.00;;;18.90;99.90;;;;;;26005616;22;20172;-70
2022/09/19 06:10:44;;;;;;;0.20;0.00;;;19.10;99.90;;;;;;25988658;22;20191;-72
2022/09/19 06:20:57;;;;;;;0.20;0.10;;;19.20;99.90;;;;;;26016732;22;20234;-71
2022/09/19 06:31:03;;;;;;;0.20;0.00;;;19.30;99.90;;;;;;26041855;22;20163;-70
2022/09/19 06:41:09;;;;;;;0.20;0.10;;;19.50;99.90;;;;;;26040422;22;20190;-69
2022/09/19 06:51:14;;;;;;;0.20;0.00;;;19.70;99.90;;;;;;26015144;22;20219;-68
2022/09/19 07:01:19;;;;;;;0.20;0.00;;;20.10;99.90;;;;;;26040265;22;20248;-72
2022/09/19 07:11:23;;;;;;;0.20;0.00;;;20.70;99.90;;;;;;26040215;22;20184;-71
2022/09/19 07:21:29;;;;;;;0.20;0.00;;;21.00;99.90;;;;;;26039082;22;20191;-71
2022/09/19 07:31:32;;;;;;;0.20;0.00;;;21.20;99.90;;;;;;26041048;22;20208;-69
2022/09/19 07:41:38;;;;;;;0.20;0.00;;;21.70;99.90;;;;;;26037918;22;20180;-68
2022/09/19 07:51:41;;;;;;;0.20;0.08;;;22.20;99.90;;;;;;26011689;22;20207;-68
2022/09/19 08:01:46;;;;;;;0.20;0.00;;;22.70;99.90;;;;;;26036050;22;20195;-69
2022/09/19 08:11:50;;;;;;;0.20;0.00;;;23.00;99.90;;;;;;26011170;22;20180;-69
2022/09/19 08:21:57;;;;;;;0.35;0.35;;;23.20;99.90;;;;;;26010210;22;21040;-68
2022/09/19 08:32:02;;;;;;;0.20;0.00;;;23.20;99.90;;;;;;26036372;22;20175;-68
2022/09/19 08:42:16;;;;;;;0.20;0.00;;;23.20;99.90;;;;;;26010962;22;20172;-69
2022/09/19 08:52:31;;;;;;;0.20;0.03;;;23.30;99.90;;;;;;26016689;22;20192;-70
2022/09/19 09:02:46;;;;;;;0.20;0.00;;;23.40;99.90;;;;;;26015922;22;20239;-69
2022/09/19 09:13:18;;;;;;;0.20;0.00;;;23.60;99.90;;;;;;26043561;22;20200;-69
2022/09/19 09:23:28;;;;;;;0.20;0.00;;;23.70;99.90;;;;;;26009148;22;20274;-69
2022/09/19 09:33:37;;;;;;;0.20;0.10;;;23.70;99.90;;;;;;26039018;22;20216;-68
2022/09/19 09:43:52;;;;;;;0.20;0.00;;;23.80;99.90;;;;;;26015072;22;20253;-68
2022/09/19 10:04:47;;;;;;;0.20;0.00;;;24.30;99.90;;;;;;25989523;22;20259;-68
2022/09/19 10:14:55;;;;;;;0.20;0.00;;;24.60;99.90;;;;;;26041337;22;20174;-69
2022/09/19 10:25:09;;;;;;;0.20;0.00;;;25.10;99.90;;;;;;26040711;22;20210;-68
2022/09/19 10:35:26;;;;;;;0.20;0.00;;;25.20;99.90;;;;;;26041781;22;20793;-69
2022/09/19 10:45:34;;;;;;;0.20;0.10;;;25.60;99.90;;;;;;26042262;22;20199;-69
2022/09/19 10:55:43;;;;;;;0.20;0.00;;;25.90;99.90;;;;;;26038576;22;20289;-69
2022/09/19 11:06:03;;;;;;;0.20;0.00;;;26.40;99.90;;;;;;26038410;22;20196;-68
2022/09/19 11:16:20;;;;;;;0.20;0.00;;;26.20;99.90;;;;;;26034774;22;20179;-67
2022/09/19 11:26:37;;;;;;;0.20;0.00;;;26.70;99.90;;;;;;26012439;22;20204;-67
2022/09/19 11:36:54;;;;;;;0.20;0.00;;;27.00;99.90;;;;;;26040046;22;20168;-67
2022/09/19 11:47:16;;;;;;;0.20;0.10;;;27.80;99.90;;;;;;26039268;22;20179;-67
2022/09/19 11:57:39;;;;;;;0.20;0.00;;;27.90;99.90;;;;;;25911089;23;20204;-67
2022/09/19 12:07:58;;;;;;;0.20;0.00;;;28.40;99.90;;;;;;25911281;23;20235;-68
2022/09/19 12:18:10;;;;;;;0.20;0.00;;;28.60;99.90;;;;;;25910472;23;20224;-69
2022/09/19 12:28:19;;;;;;;0.20;0.00;;;28.50;99.90;;;;;;25908261;23;20188;-66
2022/09/19 12:38:31;;;;;;;0.20;0.00;;;28.80;99.90;;;;;;25900584;22;20236;-69
2022/09/19 12:48:47;;;;;;;0.20;0.00;;;29.10;99.90;;;;;;25905112;23;20212;-68
2022/09/19 12:59:00;;;;;;;0.20;0.10;;;27.80;99.90;;;;;;26033039;22;20250;-69
2022/09/19 13:09:15;;;;;;;0.20;0.00;;;29.30;99.90;;;;;;26030150;22;20203;-69
2022/09/19 13:29:49;;;;;;;0.20;0.00;;;30.20;99.90;;;;;;26031330;22;20200;-67
2022/09/19 13:40:03;;;;;;;0.20;0.08;;;30.00;99.90;;;;;;26040263;22;20148;-70
2022/09/19 13:50:20;;;;;;;0.20;0.00;;;30.50;99.90;;;;;;26040246;22;20191;-70
2022/09/19 14:00:32;;;;;;;0.20;0.00;;;31.50;99.90;;;;;;26011809;22;20184;-69
2022/09/19 14:10:47;;;;;;;0.20;0.03;;;31.30;99.90;;;;;;26038496;22;20261;-68
2022/09/19 14:20:54;;;;;;;0.20;0.00;;;31.70;99.90;;;;;;26038633;22;20171;-69
2022/09/19 14:31:16;;;;;;;0.20;0.00;;;31.00;99.90;;;;;;26012182;22;20195;-68
2022/09/19 14:41:30;;;;;;;0.20;0.00;;;30.90;99.90;;;;;;26040241;22;20157;-68
2022/09/19 14:52:01;;;;;;;0.20;0.00;;;31.60;99.90;;;;;;26009342;22;20192;-69
2022/09/19 15:02:26;;;;;;;0.20;0.00;;;30.90;99.90;;;;;;26007740;22;20244;-69
2022/09/19 15:12:35;;;;;;;0.20;0.00;;;31.50;99.90;;;;;;26031983;22;20180;-68
2022/09/19 15:22:44;;;;;;;0.20;0.00;;;30.90;99.90;;;;;;26033340;22;20293;-68
2022/09/19 15:32:53;;;;;;;0.20;0.00;;;30.40;99.90;;;;;;26033368;22;20176;-70
2022/09/19 15:43:00;;;;;;;0.20;0.00;;;30.00;99.90;;;;;;26035818;22;20239;-69
2022/09/19 15:53:07;;;;;;;0.20;0.00;;;27.90;99.90;;;;;;26036004;22;20417;-70
2022/09/19 16:03:20;;;;;;;0.20;0.00;;;26.90;99.90;;;;;;26036750;22;20258;-68
2022/09/19 16:13:40;;;;;;;0.20;0.00;;;26.30;99.90;;;;;;26035456;22;20202;-70
2022/09/19 16:23:47;;;;;;;0.20;0.00;;;25.70;99.90;;;;;;26035755;22;20183;-70
2022/09/19 16:33:55;;;;;;;0.20;0.00;;;25.50;99.90;;;;;;26033713;22;20160;-72
2022/09/19 16:44:01;;;;;;;0.20;0.10;;;25.10;99.90;;;;;;26036496;22;20196;-71
2022/09/19 16:54:11;;;;;;;0.20;0.10;;;25.10;99.90;;;;;;25981511;22;20214;-70
2022/09/19 17:04:18;;;;;;;0.20;0.10;;;24.90;99.90;;;;;;26030829;22;20200;-71
2022/09/19 17:14:24;;;;;;;0.20;0.00;;;24.50;99.90;;;;;;26039393;22;20171;-70
2022/09/19 17:24:29;;;;;;;0.20;0.00;;;24.30;99.90;;;;;;26043445;22;20180;-69
2022/09/19 17:34:35;;;;;;;0.20;0.00;;;24.20;99.90;;;;;;26015983;22;20175;-68
2022/09/19 17:44:44;;;;;;;0.20;0.00;;;24.30;99.90;;;;;;26019049;22;20183;-68
2022/09/19 17:54:50;;;;;;;0.20;0.00;;;24.00;99.90;;;;;;26041623;22;20199;-68
2022/09/19 18:04:55;;;;;;;0.20;0.00;;;23.80;99.90;;;;;;26042603;22;20427;-69
2022/09/19 18:15:01;;;;;;;0.20;0.00;;;23.80;99.90;;;;;;26039382;22;20176;-69
2022/09/19 18:25:07;;;;;;;0.20;0.00;;;23.50;99.90;;;;;;26014515;22;20208;-69
2022/09/19 18:35:14;;;;;;;0.20;0.00;;;23.00;99.90;;;;;;26037528;22;20171;-69
2022/09/19 18:45:17;;;;;;;0.20;0.00;;;22.70;99.90;;;;;;26016259;22;20176;-70
2022/09/19 18:55:23;;;;;;;0.20;0.00;;;22.50;99.90;;;;;;26037324;22;20195;-70
2022/09/19 19:05:27;;;;;;;0.20;0.00;;;22.40;99.90;;;;;;26010971;22;20318;-70
2022/09/19 19:15:33;;;;;;;0.20;0.00;;;22.50;99.90;;;;;;26036648;22;20224;-71
2022/09/19 19:25:37;;;;;;;0.20;0.00;;;22.30;99.90;;;;;;26035734;22;20235;-70
2022/09/19 19:35:42;;;;;;;0.20;0.00;;;22.30;99.90;;;;;;26008610;22;20160;-70
2022/09/19 19:45:47;;;;;;;0.20;0.00;;;22.20;99.90;;;;;;26037275;22;20191;-70
2022/09/19 19:55:56;;;;;;;0.20;0.00;;;22.20;99.90;;;;;;26037603;22;20275;-69
2022/09/19 20:06:00;;;;;;;0.20;0.00;;;22.10;99.90;;;;;;26011099;22;20227;-70
2022/09/19 20:16:07;;;;;;;0.20;0.00;;;22.00;99.90;;;;;;26010994;22;20183;-70
2022/09/19 20:26:12;;;;;;;0.20;0.00;;;22.00;99.90;;;;;;26036670;22;20180;-69
2022/09/19 20:36:17;;;;;;;0.20;0.00;;;22.20;99.90;;;;;;26039365;22;20220;-70
2022/09/19 20:46:22;;;;;;;0.20;0.00;;;22.30;99.90;;;;;;26045833;22;20199;-69
2022/09/19 20:56:28;;;;;;;0.20;0.00;;;22.30;99.90;;;;;;26021346;22;20259;-68
2022/09/19 21:06:32;;;;;;;0.20;0.00;;;22.40;99.90;;;;;;26048462;22;20275;-69
2022/09/19 21:16:38;;;;;;;0.20;0.00;;;22.20;99.90;;;;;;26046511;22;20179;-69
2022/09/19 21:26:42;;;;;;;0.20;0.00;;;22.30;99.90;;;;;;26047914;22;20176;-68
2022/09/19 21:36:50;;;;;;;0.20;0.10;;;22.10;99.90;;;;;;26046473;22;20152;-68
2022/09/19 21:46:54;;;;;;;0.20;0.00;;;22.00;99.90;;;;;;26049897;22;20240;-68
2022/09/19 21:56:59;;;;;;;0.20;0.00;;;21.90;99.90;;;;;;26018916;22;20192;-69
2022/09/19 22:07:03;;;;;;;0.20;0.00;;;21.90;99.90;;;;;;26046858;22;20203;-68
2022/09/19 22:17:08;;;;;;;0.20;0.00;;;21.70;99.90;;;;;;26046453;22;20164;-70
2022/09/19 22:27:12;;;;;;;0.20;0.00;;;21.80;99.90;;;;;;26048551;22;20223;-71
2022/09/19 22:37:17;;;;;;;0.20;0.00;;;21.70;99.90;;;;;;26046732;22;20240;-69
2022/09/19 22:47:22;;;;;;;0.20;0.00;;;21.60;99.90;;;;;;26021975;22;20244;-69
2022/09/19 22:57:27;;;;;;;0.20;0.00;;;21.70;99.90;;;;;;25917938;23;20192;-69
2022/09/19 23:07:31;;;;;;;0.20;0.00;;;21.60;99.90;;;;;;25917708;23;20266;-70
2022/09/19 23:17:36;;;;;;;0.20;0.00;;;21.40;99.90;;;;;;25918534;23;20240;-70
2022/09/19 23:27:41;;;;;;;0.20;0.00;;;21.20;99.90;;;;;;25917399;23;20192;-69
2022/09/19 23:37:46;;;;;;;0.20;0.10;;;21.00;99.90;;;;;;25919016;23;20172;-68
2022/09/19 23:47:50;;;;;;;0.20;0.00;;;21.00;99.90;;;;;;25915354;23;20222;-69
2022/09/19 23:57:55;;;;;;;0.20;0.00;;;21.20;99.90;;;;;;25916116;23;20189;-68
